Time;durP1;ratioP1;P1;durP2;ratioP2;P2;SDS_P1;SDS_P2;PMS_P1;PMS_P2;Temp;Humidity;BMP_temperature;BMP_pressure;BME280_temperature;BME280_humidity;BME280_pressure;Samples;Min_cycle;Max_cycle;Signal;HPM_P1;HPM_P2
2024/01/09 00:00:07;;;;;;;10.67;6.97;;;;;;;-0.79;60.63;100198.72;4950512;28;20750;-76
2024/01/09 00:02:33;;;;;;;7.40;5.17;;;;;;;-0.81;60.44;100192.75;4951459;28;20226;-75
2024/01/09 00:04:58;;;;;;;11.43;6.57;;;;;;;-0.80;60.70;100193.59;4951952;28;20491;-76
2024/01/09 00:07:24;;;;;;;7.95;5.70;;;;;;;-0.81;60.62;100203.06;4951570;28;20121;-75
2024/01/09 00:09:49;;;;;;;14.63;6.70;;;;;;;-0.83;60.74;100204.78;4947279;28;20303;-75
2024/01/09 00:12:15;;;;;;;11.63;6.80;;;;;;;-0.86;60.88;100212.56;4952647;28;20716;-75
2024/01/09 00:14:40;;;;;;;13.20;6.60;;;;;;;-0.92;61.04;100200.56;4952121;28;20522;-75
2024/01/09 00:17:06;;;;;;;13.03;5.47;;;;;;;-0.94;60.83;100210.03;4953248;28;20430;-76
2024/01/09 00:19:33;;;;;;;14.33;6.60;;;;;;;-0.93;61.07;100205.72;4952311;28;20256;-75
2024/01/09 00:22:01;;;;;;;10.10;5.07;;;;;;;-0.91;61.08;100207.44;4951344;28;20224;-75
2024/01/09 00:24:26;;;;;;;9.38;6.50;;;;;;;-0.91;61.03;100202.25;4953090;28;20224;-75
2024/01/09 00:26:51;;;;;;;9.53;6.23;;;;;;;-0.93;61.03;100204.00;4949196;28;20236;-75
2024/01/09 00:29:17;;;;;;;6.00;3.50;;;;;;;-0.95;60.82;100210.03;4954077;28;20311;-75
2024/01/09 00:31:44;;;;;;;13.30;6.67;;;;;;;-0.98;61.18;100210.06;4956192;28;20692;-75
2024/01/09 00:34:09;;;;;;;9.32;6.53;;;;;;;-1.00;61.20;100202.34;4953264;28;20232;-75
2024/01/09 00:36:42;;;;;;;10.83;6.77;;;;;;;-1.02;61.25;100209.22;4956286;28;20223;-75
2024/01/09 00:39:07;;;;;;;12.30;8.70;;;;;;;-1.02;61.32;100210.97;4956990;28;20480;-77
2024/01/09 00:41:33;;;;;;;11.63;7.17;;;;;;;-1.04;61.96;100210.09;4957820;28;20216;-76
2024/01/09 00:43:58;;;;;;;13.77;7.83;;;;;;;-1.08;61.73;100209.28;4957435;28;20228;-76
2024/01/09 00:46:27;;;;;;;13.20;7.63;;;;;;;-1.08;61.75;100210.97;4957253;28;20881;-76
2024/01/09 00:48:52;;;;;;;6.85;5.60;;;;;;;-1.08;61.51;100210.97;4956945;28;20208;-76
2024/01/09 00:51:18;;;;;;;11.20;6.50;;;;;;;-1.08;61.58;100205.81;4954537;28;20212;-76
2024/01/09 00:53:43;;;;;;;13.60;5.93;;;;;;;-1.07;61.51;100204.97;4951416;28;20244;-76
2024/01/09 00:56:08;;;;;;;9.90;6.67;;;;;;;-1.10;61.61;100207.56;4953866;28;20719;-76
2024/01/09 00:58:34;;;;;;;9.23;5.53;;;;;;;-1.10;61.85;100212.72;4955282;28;20224;-76
2024/01/09 01:00:59;;;;;;;11.83;8.23;;;;;;;-1.09;61.50;100217.00;4955826;28;20230;-76
2024/01/09 01:03:24;;;;;;;7.97;5.63;;;;;;;-1.14;61.37;100212.72;4953219;28;20220;-76
2024/01/09 01:05:51;;;;;;;5.13;3.90;;;;;;;-1.17;61.57;100217.91;4953717;28;20704;-76
2024/01/09 01:08:16;;;;;;;12.00;7.03;;;;;;;-1.20;61.69;100212.78;4954405;28;20515;-76
2024/01/09 01:10:41;;;;;;;14.47;6.17;;;;;;;-1.24;61.54;100213.66;4951959;28;20488;-75
2024/01/09 01:13:10;;;;;;;12.90;8.63;;;;;;;-1.24;61.64;100213.66;4955761;28;20219;-76
2024/01/09 01:15:36;;;;;;;10.93;6.47;;;;;;;-1.24;62.11;100213.66;4952034;28;20343;-76
2024/01/09 01:18:01;;;;;;;8.97;6.50;;;;;;;-1.28;61.60;100217.13;4952525;28;20220;-75
2024/01/09 01:20:26;;;;;;;13.17;8.70;;;;;;;-1.34;61.89;100217.16;4953573;28;20673;-76
2024/01/09 01:22:52;;;;;;;10.90;6.83;;;;;;;-1.33;61.85;100218.84;4950291;28;20220;-76
2024/01/09 01:25:17;;;;;;;9.67;6.67;;;;;;;-1.32;62.08;100223.16;4952295;28;20228;-77
2024/01/09 01:27:43;;;;;;;6.70;5.30;;;;;;;-1.29;61.87;100224.88;4953341;28;20236;-76
2024/01/09 01:30:08;;;;;;;11.23;5.83;;;;;;;-1.28;61.60;100224.00;4952606;28;20235;-76
2024/01/09 01:32:34;;;;;;;16.10;8.20;;;;;;;-1.26;61.53;100230.00;4954430;28;20231;-77
2024/01/09 01:34:59;;;;;;;8.10;6.10;;;;;;;-1.31;62.08;100234.31;4950671;28;20497;-75
2024/01/09 01:37:24;;;;;;;8.50;6.10;;;;;;;-1.33;61.62;100236.91;4953823;28;20479;-76
2024/01/09 01:39:50;;;;;;;10.97;6.50;;;;;;;-1.33;61.77;100232.59;4953495;28;20487;-76
2024/01/09 01:42:16;;;;;;;10.27;6.57;;;;;;;-1.37;61.83;100236.06;4954108;28;20290;-76
2024/01/09 01:44:42;;;;;;;6.72;5.18;;;;;;;-1.39;61.89;100224.06;4952451;28;20243;-75
2024/01/09 01:47:09;;;;;;;12.80;7.30;;;;;;;-1.41;61.91;100233.50;4950892;28;20224;-76
2024/01/09 01:49:35;;;;;;;13.95;7.85;;;;;;;-1.42;61.95;100236.94;4953262;28;20692;-75
2024/01/09 01:52:01;;;;;;;10.03;6.07;;;;;;;-1.42;61.95;100234.38;4955742;28;20231;-75
2024/01/09 01:54:28;;;;;;;13.27;6.80;;;;;;;-1.47;61.96;100236.13;4952379;28;20479;-76
2024/01/09 01:56:55;;;;;;;12.82;6.25;;;;;;;-1.47;61.96;100236.97;4953834;28;20290;-76
2024/01/09 01:59:22;;;;;;;9.07;6.10;;;;;;;-1.49;61.98;100232.69;4948362;28;20789;-76
2024/01/09 02:01:47;;;;;;;7.80;4.65;;;;;;;-1.54;61.82;100237.84;4947016;28;20234;-76
2024/01/09 02:04:13;;;;;;;10.27;6.72;;;;;;;-1.58;62.14;100231.00;4948633;28;20246;-76
2024/01/09 02:06:39;;;;;;;11.27;8.40;;;;;;;-1.58;62.57;100231.84;4947276;28;20493;-77
2024/01/09 02:09:05;;;;;;;12.88;9.80;;;;;;;-1.56;62.67;100235.28;4949315;28;20493;-76
2024/01/09 02:11:32;;;;;;;6.10;4.50;;;;;;;-1.54;62.59;100232.69;4950815;28;20569;-76
2024/01/09 02:13:58;;;;;;;10.80;6.32;;;;;;;-1.53;62.37;100225.84;4974703;22;20321;-75
2024/01/09 02:16:24;;;;;;;7.60;6.78;;;;;;;-1.54;62.57;100232.69;4964205;28;20243;-76
2024/01/09 02:18:49;;;;;;;12.47;8.17;;;;;;;-1.54;62.59;100230.13;4978021;28;20935;-76
2024/01/09 02:21:14;;;;;;;10.33;5.63;;;;;;;-1.56;62.31;100226.72;4996308;28;20226;-75
2024/01/09 02:23:40;;;;;;;14.57;6.20;;;;;;;-1.58;62.02;100231.84;4995342;28;20277;-75
2024/01/09 02:26:08;;;;;;;15.93;7.20;;;;;;;-1.59;62.44;100217.28;4992670;28;20203;-76
2024/01/09 02:28:47;;;;;;;10.13;5.95;;;;;;;-1.67;62.37;100221.59;4993349;28;20222;-75
2024/01/09 02:31:13;;;;;;;9.10;7.60;;;;;;;-1.69;62.61;100225.91;4993536;28;20704;-75
2024/01/09 02:33:39;;;;;;;11.43;7.60;;;;;;;-1.70;62.61;100229.34;4995211;28;20456;-76
2024/01/09 02:36:05;;;;;;;13.20;6.15;;;;;;;-1.74;62.88;100222.47;4995730;28;20219;-77
2024/01/09 02:38:30;;;;;;;17.02;8.95;;;;;;;-1.76;62.65;100219.03;4995181;28;20940;-77
2024/01/09 02:40:56;;;;;;;9.53;6.60;;;;;;;-1.78;63.06;100215.66;5005444;28;20226;-76
2024/01/09 02:43:21;;;;;;;11.50;6.30;;;;;;;-1.77;63.02;100209.63;4989559;28;20233;-75
2024/01/09 02:45:47;;;;;;;6.87;5.83;;;;;;;-1.78;62.64;100225.94;5012606;28;20286;-76
2024/01/09 02:48:12;;;;;;;11.93;6.30;;;;;;;-1.82;62.85;100214.78;5010212;28;20226;-76
2024/01/09 02:50:37;;;;;;;16.00;7.27;;;;;;;-1.82;62.54;100219.06;5003078;28;20264;-76
2024/01/09 02:53:03;;;;;;;10.17;6.73;;;;;;;-1.84;62.60;100218.22;4994651;28;20218;-77
2024/01/09 02:55:28;;;;;;;10.80;7.80;;;;;;;-1.86;62.64;100219.97;4994049;28;20591;-76
2024/01/09 02:57:54;;;;;;;10.60;7.00;;;;;;;-1.87;62.89;100215.66;4996684;28;20214;-77
2024/01/09 03:00:19;;;;;;;8.07;6.13;;;;;;;-1.92;62.59;100218.25;4988766;28;20524;-76
2024/01/09 03:02:45;;;;;;;12.27;8.47;;;;;;;-1.95;62.59;100227.69;4990446;28;20219;-76
2024/01/09 03:05:10;;;;;;;18.00;7.13;;;;;;;-1.98;62.83;100220.00;4992611;28;20488;-77
2024/01/09 03:07:36;;;;;;;11.00;6.97;;;;;;;-2.02;62.89;100217.44;4991664;28;20790;-76
2024/01/09 03:10:02;;;;;;;11.50;7.33;;;;;;;-2.08;62.94;100214.00;4985286;28;20306;-77
2024/01/09 03:12:27;;;;;;;13.75;8.27;;;;;;;-2.11;63.09;100226.88;4986575;28;20257;-77
2024/01/09 03:14:53;;;;;;;16.20;8.77;;;;;;;-2.15;63.06;100225.19;4984812;28;20319;-76
2024/01/09 03:17:18;;;;;;;14.87;8.17;;;;;;;-2.18;63.25;100220.91;4986828;28;20210;-76
2024/01/09 03:19:44;;;;;;;14.13;8.90;;;;;;;-2.20;63.24;100225.19;4990020;28;20222;-76
2024/01/09 03:22:09;;;;;;;18.10;8.10;;;;;;;-2.26;63.28;100223.47;4991771;28;20227;-76
2024/01/09 03:24:35;;;;;;;9.07;6.10;;;;;;;-2.32;63.47;100225.19;4994456;28;20350;-76
2024/01/09 03:27:00;;;;;;;9.97;6.10;;;;;;;-2.38;63.33;100217.47;4995318;28;20230;-76
2024/01/09 03:29:26;;;;;;;14.03;7.03;;;;;;;-2.45;63.52;100224.38;4990386;28;20230;-77
2024/01/09 03:31:51;;;;;;;10.13;7.07;;;;;;;-2.50;63.74;100229.50;4992192;28;20219;-76
2024/01/09 03:34:16;;;;;;;15.97;8.07;;;;;;;-2.58;63.47;100228.66;4992242;28;20222;-77
2024/01/09 03:36:44;;;;;;;10.57;6.70;;;;;;;-2.62;63.61;100228.66;4992335;28;20230;-77
2024/01/09 03:39:10;;;;;;;7.75;6.22;;;;;;;-2.66;63.82;100227.78;4991691;28;20203;-76
2024/01/09 03:41:36;;;;;;;8.82;5.47;;;;;;;-2.69;63.71;100226.09;4995802;28;20291;-76
2024/01/09 03:44:01;;;;;;;9.40;4.70;;;;;;;-2.70;63.83;100221.81;4993290;28;20683;-78
2024/01/09 03:46:26;;;;;;;10.30;7.97;;;;;;;-2.75;64.06;100230.38;4995477;28;20651;-77
2024/01/09 03:48:52;;;;;;;9.50;4.80;;;;;;;-2.75;64.08;100227.81;4993536;28;20325;-76
2024/01/09 03:51:17;;;;;;;6.97;5.77;;;;;;;-2.79;63.93;100226.06;4968456;28;20211;-76
2024/01/09 03:53:43;;;;;;;14.03;7.20;;;;;;;-2.75;63.88;100231.22;4993058;28;20210;-76
2024/01/09 03:56:08;;;;;;;14.70;5.90;;;;;;;-2.71;64.05;100234.66;4995591;28;20396;-76
2024/01/09 03:58:33;;;;;;;9.20;7.23;;;;;;;-2.70;63.87;100219.25;4993041;28;20679;-77
2024/01/09 04:00:59;;;;;;;11.00;6.57;;;;;;;-2.67;63.83;100226.09;4988475;28;20379;-76
2024/01/09 04:03:24;;;;;;;13.60;5.93;;;;;;;-2.67;63.72;100220.94;4991966;28;20679;-76
2024/01/09 04:05:49;;;;;;;12.30;6.07;;;;;;;-2.63;63.64;100221.81;4994440;28;20211;-75
2024/01/09 04:08:15;;;;;;;8.00;5.37;;;;;;;-2.62;63.82;100223.50;4994744;28;20230;-76
2024/01/09 04:10:41;;;;;;;9.23;5.57;;;;;;;-2.59;63.61;100218.34;4995771;28;20855;-76
2024/01/09 04:13:06;;;;;;;13.27;7.13;;;;;;;-2.58;63.71;100225.22;4993619;28;20207;-76
2024/01/09 04:15:32;;;;;;;13.57;5.77;;;;;;;-2.60;63.46;100217.50;4995259;28;20483;-76
2024/01/09 04:17:57;;;;;;;13.10;6.43;;;;;;;-2.63;63.84;100217.50;4996443;28;20207;-76
2024/01/09 04:20:23;;;;;;;12.37;4.30;;;;;;;-2.65;63.88;100219.22;4996403;28;20211;-76
2024/01/09 04:22:48;;;;;;;11.23;6.73;;;;;;;-2.66;63.83;100217.50;4994272;28;20810;-75
2024/01/09 04:25:14;;;;;;;12.67;6.80;;;;;;;-2.67;63.85;100210.66;4996932;28;20233;-75
2024/01/09 04:27:39;;;;;;;13.80;9.20;;;;;;;-2.65;64.05;100218.38;4995299;28;20223;-75
2024/01/09 04:30:06;;;;;;;11.10;6.10;;;;;;;-2.63;63.66;100214.94;4997340;28;20207;-75
2024/01/09 04:32:31;;;;;;;7.72;5.00;;;;;;;-2.60;63.55;100225.22;4978273;28;20496;-76
2024/01/09 04:34:57;;;;;;;9.27;6.77;;;;;;;-2.62;63.36;100216.66;4996369;28;20215;-76
2024/01/09 04:37:23;;;;;;;11.23;6.87;;;;;;;-2.65;63.51;100216.66;4992692;28;20575;-76
2024/01/09 04:39:48;;;;;;;10.87;6.70;;;;;;;-2.67;63.61;100215.81;4994602;28;21025;-76
2024/01/09 04:42:13;;;;;;;8.27;6.47;;;;;;;-2.67;63.84;100215.81;4995285;28;20214;-76
2024/01/09 04:44:39;;;;;;;5.80;3.40;;;;;;;-2.72;63.61;100223.50;4995275;28;20203;-77
2024/01/09 04:47:04;;;;;;;9.47;6.97;;;;;;;-2.74;63.93;100214.94;4995615;28;20286;-76
2024/01/09 04:49:30;;;;;;;14.27;9.17;;;;;;;-2.75;63.95;100214.94;4991354;28;20226;-76
2024/01/09 04:51:55;;;;;;;12.40;7.50;;;;;;;-2.75;63.49;100208.09;4990964;28;20231;-76
2024/01/09 04:54:20;;;;;;;10.97;6.20;;;;;;;-2.75;63.95;100217.53;4991293;28;20238;-76
2024/01/09 04:56:46;;;;;;;7.37;6.57;;;;;;;-2.73;63.77;100211.53;4997127;28;20516;-76
2024/01/09 04:59:11;;;;;;;14.13;7.60;;;;;;;-2.71;63.75;100214.09;4993922;28;20191;-76
2024/01/09 05:01:37;;;;;;;16.03;9.90;;;;;;;-2.70;63.50;100214.09;4992087;28;20203;-76
2024/01/09 05:04:02;;;;;;;10.83;7.87;;;;;;;-2.74;63.59;100208.94;4994150;28;20808;-76
2024/01/09 05:06:27;;;;;;;19.90;8.50;;;;;;;-2.77;63.69;100220.09;4993341;28;20195;-76
2024/01/09 05:08:53;;;;;;;11.70;9.17;;;;;;;-2.74;64.06;100214.94;4988198;28;20434;-76
2024/01/09 05:11:18;;;;;;;13.80;8.50;;;;;;;-2.73;64.00;100216.66;4995568;28;21033;-76
2024/01/09 05:13:43;;;;;;;10.30;8.57;;;;;;;-2.73;63.99;100214.09;4990319;28;20203;-76
2024/01/09 05:16:09;;;;;;;11.40;6.93;;;;;;;-2.75;63.92;100210.66;4988972;28;20199;-75
2024/01/09 05:18:34;;;;;;;17.23;9.80;;;;;;;-2.73;63.72;100213.22;4996272;28;20233;-76
2024/01/09 05:21:00;;;;;;;10.47;5.87;;;;;;;-2.71;64.04;100214.94;4995223;28;20203;-76
2024/01/09 05:23:25;;;;;;;9.30;7.60;;;;;;;-2.71;63.80;100214.09;4994142;28;20433;-76
2024/01/09 05:25:50;;;;;;;15.53;8.50;;;;;;;-2.72;63.49;100218.38;4990643;28;20203;-76
2024/01/09 05:28:16;;;;;;;19.03;7.57;;;;;;;-2.74;63.94;100225.22;4993645;28;20759;-76
2024/01/09 05:30:42;;;;;;;12.00;7.33;;;;;;;-2.74;63.73;100226.94;4987386;28;20203;-76
2024/01/09 05:33:07;;;;;;;9.00;6.43;;;;;;;-2.72;63.78;100227.81;4992966;28;20429;-76
2024/01/09 05:35:33;;;;;;;10.93;6.87;;;;;;;-2.71;63.53;100232.06;4991345;28;20227;-77
2024/01/09 05:37:58;;;;;;;14.13;8.53;;;;;;;-2.68;63.50;100232.06;4994002;28;20203;-76
2024/01/09 05:40:24;;;;;;;13.57;6.60;;;;;;;-2.67;63.53;100228.66;4993838;28;20430;-76
2024/01/09 05:42:49;;;;;;;13.90;8.43;;;;;;;-2.66;63.75;100225.22;4993269;28;20218;-76
2024/01/09 05:45:15;;;;;;;15.37;8.20;;;;;;;-2.61;63.45;100226.09;4991141;28;20209;-77
2024/01/09 05:47:40;;;;;;;16.10;6.60;;;;;;;-2.58;63.51;100231.22;4991050;28;20733;-76
2024/01/09 05:50:07;;;;;;;13.47;6.30;;;;;;;-2.59;63.31;100226.94;4983430;28;20211;-76
2024/01/09 05:52:36;;;;;;;12.55;7.18;;;;;;;-2.55;63.52;100228.66;4982763;28;20548;-75
2024/01/09 05:55:05;;;;;;;9.32;5.25;;;;;;;-2.52;63.46;100230.38;4987102;28;20359;-76
2024/01/09 05:57:31;;;;;;;8.90;5.82;;;;;;;-2.49;63.41;100220.06;4981467;28;20211;-76
2024/01/09 05:59:57;;;;;;;12.93;8.43;;;;;;;-2.45;63.43;100221.78;4982713;28;20226;-76
2024/01/09 06:02:24;;;;;;;13.00;6.78;;;;;;;-2.45;63.43;100232.09;4984140;28;20202;-76
2024/01/09 06:04:49;;;;;;;13.10;7.47;;;;;;;-2.42;63.61;100228.66;4982882;28;20250;-76
2024/01/09 06:07:15;;;;;;;10.93;8.00;;;;;;;-2.42;63.56;100221.78;4985727;28;20313;-76
2024/01/09 06:09:41;;;;;;;24.63;20.00;;;;;;;-2.41;63.41;100220.91;4982656;28;20581;-76
2024/01/09 06:12:07;;;;;;;17.95;10.52;;;;;;;-2.43;63.71;100225.22;4983501;28;20508;-76
2024/01/09 06:14:32;;;;;;;9.43;5.93;;;;;;;-2.46;63.36;100222.63;4990475;28;20326;-76
2024/01/09 06:16:58;;;;;;;13.37;7.73;;;;;;;-2.49;63.63;100227.78;4994920;28;20211;-76
2024/01/09 06:19:23;;;;;;;11.33;6.23;;;;;;;-2.50;63.86;100223.50;4991682;28;20202;-76
2024/01/09 06:21:49;;;;;;;18.83;15.57;;;;;;;-2.47;63.86;100221.78;4994116;28;20234;-76
2024/01/09 06:24:15;;;;;;;10.90;6.17;;;;;;;-2.45;63.90;100224.38;4994333;28;20203;-76
2024/01/09 06:26:40;;;;;;;10.15;5.38;;;;;;;-2.42;63.63;100226.09;4991121;28;20461;-76
2024/01/09 06:29:06;;;;;;;13.40;6.13;;;;;;;-2.39;63.64;100220.94;4992264;28;20435;-76
2024/01/09 06:31:32;;;;;;;10.57;7.33;;;;;;;-2.37;63.69;100220.06;4975413;28;20209;-75
2024/01/09 06:33:57;;;;;;;18.15;7.97;;;;;;;-2.33;63.74;100226.06;4993935;28;20237;-76
2024/01/09 06:36:23;;;;;;;11.57;6.20;;;;;;;-2.29;63.42;100223.50;4993438;28;20285;-76
2024/01/09 06:38:48;;;;;;;10.80;5.33;;;;;;;-2.26;63.35;100223.47;4993114;28;20203;-76
2024/01/09 06:41:14;;;;;;;10.10;8.57;;;;;;;-2.21;63.43;100220.91;4993355;28;20237;-76
2024/01/09 06:43:39;;;;;;;9.87;8.43;;;;;;;-2.13;63.24;100228.59;4995447;28;20213;-76
2024/01/09 06:46:04;;;;;;;18.10;8.07;;;;;;;-2.06;63.21;100232.88;4991713;28;20309;-76
2024/01/09 06:48:30;;;;;;;15.63;9.30;;;;;;;-2.03;63.43;100225.13;4994811;28;20548;-76
2024/01/09 06:50:55;;;;;;;14.50;7.87;;;;;;;-2.01;63.37;100229.44;4977531;28;20466;-76
2024/01/09 06:53:21;;;;;;;8.10;7.27;;;;;;;-1.99;63.33;100231.16;5009814;28;20226;-76
2024/01/09 06:55:46;;;;;;;13.17;7.37;;;;;;;-1.99;63.38;100233.72;5004212;28;20579;-76
2024/01/09 06:58:12;;;;;;;12.73;8.93;;;;;;;-2.02;63.12;100238.03;4995855;28;20198;-76
2024/01/09 07:00:38;;;;;;;12.20;8.57;;;;;;;-2.02;63.54;100234.59;4994626;28;20210;-77
2024/01/09 07:03:03;;;;;;;15.67;8.90;;;;;;;-2.00;63.09;100245.72;4993376;28;20719;-77
2024/01/09 07:05:29;;;;;;;12.10;7.77;;;;;;;-2.00;63.35;100235.44;4991646;28;20741;-77
2024/01/09 07:07:54;;;;;;;17.83;8.43;;;;;;;-2.02;62.94;100238.03;4990970;28;20282;-77
2024/01/09 07:10:20;;;;;;;11.50;6.30;;;;;;;-2.05;63.23;100232.88;4989444;28;20607;-77
2024/01/09 07:12:45;;;;;;;10.97;7.70;;;;;;;-2.03;63.17;100241.44;4990720;28;20596;-77
2024/01/09 07:15:13;;;;;;;12.50;7.63;;;;;;;-2.02;62.72;100248.31;4988655;28;20288;-77
2024/01/09 07:17:39;;;;;;;15.38;9.48;;;;;;;-2.01;63.04;100246.59;4991602;28;20210;-77
2024/01/09 07:20:05;;;;;;;12.97;8.53;;;;;;;-2.01;62.70;100250.03;4989026;28;21940;-77
2024/01/09 07:22:31;;;;;;;13.35;9.20;;;;;;;-2.00;62.48;100243.16;4990888;28;20202;-77
2024/01/09 07:24:56;;;;;;;8.23;6.83;;;;;;;-2.03;62.42;100249.16;4988231;28;20203;-77
2024/01/09 07:27:21;;;;;;;13.30;8.00;;;;;;;-2.07;62.40;100250.03;4991328;28;20311;-77
2024/01/09 07:29:47;;;;;;;13.50;7.63;;;;;;;-2.07;62.70;100246.63;4991360;28;20198;-77
2024/01/09 07:32:12;;;;;;;8.80;5.77;;;;;;;-2.07;62.80;100251.75;4993921;28;20211;-77
2024/01/09 07:34:37;;;;;;;10.60;7.17;;;;;;;-2.09;62.73;100253.47;4986509;28;20535;-77
2024/01/09 07:37:03;;;;;;;10.63;7.60;;;;;;;-2.11;62.48;100255.19;4992368;28;20211;-77
2024/01/09 07:39:28;;;;;;;17.07;11.70;;;;;;;-2.10;62.62;100252.63;4991381;28;20429;-77
2024/01/09 07:41:54;;;;;;;14.13;9.90;;;;;;;-2.11;62.69;100257.75;4993801;28;20198;-77
2024/01/09 07:44:20;;;;;;;13.07;9.30;;;;;;;-2.13;62.63;100257.78;4990953;28;20286;-77
2024/01/09 07:46:46;;;;;;;21.90;10.40;;;;;;;-2.13;62.90;100249.19;4974379;28;20202;-77
2024/01/09 07:49:11;;;;;;;16.10;7.40;;;;;;;-2.11;62.62;100257.75;4989850;28;20210;-78
2024/01/09 07:51:37;;;;;;;11.77;8.47;;;;;;;-2.09;62.72;100261.19;4991031;28;20586;-77
2024/01/09 07:54:03;;;;;;;14.00;7.57;;;;;;;-2.06;62.56;100256.03;4972316;28;20203;-77
2024/01/09 07:57:17;;;;;;;;;;;;;;;;;;;;;
2024/01/09 08:00:22;;;;;;;;;;;;;;;;;;;;;
2024/01/09 08:03:02;;;;;;;11.50;7.35;;;;;;;-1.86;62.15;100258.59;4992612;28;21065;-92
2024/01/09 08:05:30;;;;;;;12.52;7.30;;;;;;;-1.79;61.79;100262.84;4985180;28;20195;-92
2024/01/09 08:08:23;;;;;;;12.30;8.95;;;;;;;-1.70;61.82;100267.97;4986696;28;20439;-90
2024/01/09 08:11:05;;;;;;;11.85;7.40;;;;;;;-1.65;61.99;100266.22;4970289;28;20207;-91
2024/01/09 08:13:37;;;;;;;14.55;8.43;;;;;;;-1.63;62.01;100267.06;4982226;28;20683;-91
2024/01/09 08:16:29;;;;;;;17.27;9.40;;;;;;;-1.60;61.74;100264.50;4999669;28;20530;-93
2024/01/09 08:19:04;;;;;;;17.73;10.23;;;;;;;-1.59;61.91;100263.66;5000833;28;20203;-92
2024/01/09 08:21:54;;;;;;;11.65;8.02;;;;;;;-1.58;61.84;100267.06;4999984;28;20290;-93
2024/01/09 08:24:50;;;;;;;13.15;8.50;;;;;;;-1.58;61.76;100261.91;4964674;28;20211;-92
2024/01/09 08:27:16;;;;;;;14.55;8.13;;;;;;;-1.61;61.59;100267.94;4986994;28;20219;-92
2024/01/09 08:32:39;;;;;;;10.95;8.15;;;;;;;-1.64;61.69;100264.53;4979294;28;20207;-92
2024/01/09 08:35:17;;;;;;;12.73;7.97;;;;;;;-1.65;61.46;100271.38;4987772;28;20270;-92
2024/01/09 08:38:09;;;;;;;19.70;9.43;;;;;;;-1.64;61.62;100267.94;4998621;28;20175;-91
2024/01/09 08:40:55;;;;;;;;;;;;;;;;;;;;;
2024/01/09 08:44:10;;;;;;;12.88;9.30;;;;;;;-1.59;61.18;100266.22;4992678;28;20969;-91
2024/01/09 08:47:00;;;;;;;14.65;8.48;;;;;;;-1.54;61.52;100265.34;4990377;28;20269;-92
2024/01/09 08:49:30;;;;;;;11.30;8.40;;;;;;;-1.45;61.04;100270.47;4979924;28;20589;-91
2024/01/09 08:52:31;;;;;;;;;;;;;;;;;;;;;
2024/01/09 08:55:17;;;;;;;8.40;6.70;;;;;;;-1.30;60.97;100278.13;4998698;28;20214;-92
2024/01/09 08:57:51;;;;;;;7.05;5.40;;;;;;;-1.26;60.62;100276.41;4992066;28;20219;-91
2024/01/09 09:00:47;;;;;;;16.52;8.95;;;;;;;-1.23;60.57;100273.81;4990442;28;20195;-90
2024/01/09 09:03:23;;;;;;;10.52;6.25;;;;;;;-1.18;60.46;100274.63;4990868;28;20257;-91
2024/01/09 09:06:07;;;;;;;;;;;;;;;;;;;;;
2024/01/09 09:09:41;;;;;;;;;;;;;;;;;;;;;
2024/01/09 09:11:38;;;;;;;12.18;7.93;;;;;;;-1.05;59.85;100276.28;4995445;28;20207;-91
2024/01/09 09:14:28;;;;;;;11.23;5.88;;;;;;;-1.01;59.78;100271.97;5015485;28;21124;-90
2024/01/09 09:20:41;;;;;;;11.68;6.28;;;;;;;-1.02;59.62;100278.84;5016128;28;20211;-92
2024/01/09 09:23:40;;;;;;;12.13;6.40;;;;;;;-1.06;59.62;100279.72;4995007;28;20206;-92
2024/01/09 09:30:32;;;;;;;;;;;;;;;;;;;;;
2024/01/09 09:34:20;;;;;;;;;;;;;;;;;;;;;
2024/01/09 09:36:48;;;;;;;9.70;6.18;;;;;;;-0.83;59.24;100282.16;5010682;28;20222;-91
2024/01/09 09:43:02;;;;;;;14.82;9.75;;;;;;;-0.77;59.05;100300.19;4970339;28;20203;-91
2024/01/09 09:45:56;;;;;;;20.75;9.70;;;;;;;-0.77;59.23;100289.00;4991826;28;20205;-91
2024/01/09 09:48:41;;;;;;;12.32;9.50;;;;;;;-0.75;59.08;100288.13;5012526;28;20203;-92
2024/01/09 09:52:11;;;;;;;;;;;;;;;;;;;;;
2024/01/09 09:58:31;;;;;;;;;;;;;;;;;;;;;
2024/01/09 10:02:08;;;;;;;10.68;6.45;;;;;;;-0.43;58.43;100292.22;5016660;28;20215;-91
2024/01/09 10:04:53;;;;;;;13.32;7.97;;;;;;;-0.39;58.27;100293.03;5013149;28;20207;-92
2024/01/09 10:07:25;;;;;;;12.80;7.70;;;;;;;-0.35;58.00;100282.69;5015935;28;20626;-91
2024/01/09 10:10:34;;;;;;;17.23;6.50;;;;;;;-0.37;58.07;100286.16;4994343;28;20206;-92
2024/01/09 10:13:45;;;;;;;15.20;9.32;;;;;;;-0.34;58.02;100288.69;5016771;28;20210;-91
2024/01/09 10:20:16;;;;;;;11.35;6.07;;;;;;;-0.18;57.96;100292.00;4992027;28;20234;-92
2024/01/09 10:23:23;;;;;;;11.63;6.35;;;;;;;-0.09;57.70;100277.28;5010742;28;20222;-93
2024/01/09 10:25:57;;;;;;;15.05;7.65;;;;;;;0.01;57.74;100280.63;5013149;28;20223;-93
2024/01/09 10:28:42;;;;;;;12.20;7.90;;;;;;;0.08;57.33;100274.53;4997549;28;20233;-92
2024/01/09 10:31:34;;;;;;;;;;;;;;;;;;;;;
2024/01/09 10:34:34;;;;;;;13.32;8.02;;;;;;;0.28;56.66;100266.56;5006362;28;20206;-91
2024/01/09 10:37:50;;;;;;;;;;;;;;;;;;;;;
2024/01/09 10:40:49;;;;;;;10.50;6.78;;;;;;;0.35;55.11;100269.94;5018203;28;20207;-93
2024/01/09 10:44:08;;;;;;;;;;;;;;;;;;;;;
2024/01/09 10:47:14;;;;;;;;;;;;;;;;;;;;;
2024/01/09 10:50:24;;;;;;;16.25;9.23;;;;;;;0.37;54.40;100270.78;5018031;28;20267;-92
2024/01/09 10:53:26;;;;;;;;;;;;;;;;;;;;;
2024/01/09 10:56:34;;;;;;;13.82;7.00;;;;;;;0.47;54.05;100262.03;5014508;28;20245;-91
2024/01/09 10:59:31;;;;;;;14.93;7.88;;;;;;;0.48;54.12;100263.75;5012769;28;20187;-91
2024/01/09 11:02:36;;;;;;;12.35;7.50;;;;;;;0.50;54.18;100262.00;4995798;28;20206;-93
2024/01/09 11:05:26;;;;;;;11.07;8.13;;;;;;;0.54;53.89;100258.53;4986012;28;20218;-91
2024/01/09 11:08:45;;;;;;;12.00;7.45;;;;;;;0.55;53.91;100259.38;4976474;28;20215;-94
2024/01/09 11:11:31;;;;;;;18.70;9.98;;;;;;;0.42;53.77;100254.34;4971123;28;20206;-93
2024/01/09 11:14:39;;;;;;;17.77;8.73;;;;;;;0.42;53.41;100259.50;4987752;28;20206;-93
2024/01/09 11:32:33;;;;;;;;;;;;;;;;;;;;;
2024/01/09 11:35:27;;;;;;;12.60;7.97;;;;;;;0.69;53.19;100254.88;4965767;28;20803;-92
2024/01/09 11:41:56;;;;;;;;;;;;;;;;;;;;;
2024/01/09 11:48:24;;;;;;;;;;;;;;;;;;;;;
2024/01/09 11:51:33;;;;;;;10.18;7.07;;;;;;;0.86;52.72;100254.66;4980132;28;20520;-94
2024/01/09 11:55:07;;;;;;;;;;;;;;;;;;;;;
2024/01/09 12:08:45;;;;;;;6.97;5.68;;;;;;;0.93;52.78;100250.25;4903115;28;20557;-92
2024/01/09 12:11:21;;;;;;;8.25;6.70;;;;;;;0.85;52.50;100252.94;4983820;28;20206;-92
2024/01/09 12:14:29;;;;;;;11.90;6.77;;;;;;;0.90;53.04;100256.31;4979301;28;20188;-93
2024/01/09 12:17:29;;;;;;;;;;;;;;;;;;;;;
2024/01/09 12:20:35;;;;;;;;;;;;;;;;;;;;;
2024/01/09 12:35:03;;;;;;;;;;;;;;;;;;;;;
2024/01/09 12:38:21;;;;;;;;;;;;;;;;;;;;;
2024/01/09 12:41:07;;;;;;;10.55;7.70;;;;;;;1.02;52.41;100250.97;5024185;22;20299;-76
2024/01/09 12:43:34;;;;;;;11.07;6.33;;;;;;;1.01;52.70;100262.19;5015699;28;20301;-77
2024/01/09 12:46:00;;;;;;;9.82;6.93;;;;;;;0.98;52.57;100259.66;5011638;28;20245;-78
2024/01/09 12:48:26;;;;;;;17.13;10.10;;;;;;;0.80;52.84;100254.75;5008359;28;20218;-77
2024/01/09 12:51:02;;;;;;;17.15;8.57;;;;;;;0.70;52.98;100259.16;4991545;28;20298;-77
2024/01/09 12:53:32;;;;;;;9.07;6.85;;;;;;;0.81;52.99;100257.31;4984001;28;20206;-77
2024/01/09 12:56:08;;;;;;;9.90;6.80;;;;;;;0.90;52.83;100258.91;5016442;22;20241;-86
2024/01/09 12:58:36;;;;;;;12.32;7.85;;;;;;;0.90;52.95;100258.06;5004428;28;20206;-86
2024/01/09 13:01:05;;;;;;;12.30;7.90;;;;;;;0.78;52.91;100254.75;5024497;28;20201;-85
2024/01/09 13:03:34;;;;;;;14.20;8.45;;;;;;;0.70;53.18;100258.31;5016866;28;20191;-86
2024/01/09 13:06:04;;;;;;;19.35;11.85;;;;;;;0.47;53.30;100259.47;5016040;28;20593;-86
2024/01/09 13:08:34;;;;;;;18.33;10.70;;;;;;;0.62;53.45;100264.47;5016413;28;20441;-86
2024/01/09 13:11:04;;;;;;;12.75;7.50;;;;;;;0.67;53.35;100264.38;5016914;28;20326;-86
2024/01/09 13:13:34;;;;;;;13.57;9.68;;;;;;;0.74;53.33;100252.25;5019550;28;20206;-86
2024/01/09 13:16:07;;;;;;;16.08;11.43;;;;;;;0.74;53.29;100255.69;5017014;28;20203;-87
2024/01/09 13:18:33;;;;;;;15.88;8.40;;;;;;;0.85;52.94;100251.22;5015703;28;20202;-86
2024/01/09 13:20:59;;;;;;;17.50;11.87;;;;;;;0.62;53.06;100254.13;5016982;28;20527;-87
2024/01/09 13:23:24;;;;;;;12.52;8.43;;;;;;;0.59;53.36;100261.88;5020047;28;20458;-86